Latest Weather Observations for Innisfail Aero

IDQ60801

Issued at 5:02 pm EST Saturday 22 September 2018 (issued every 10 minutes, with the page automatically refreshed every 10 minutes)

About weather observations | Map of weather stations | Latest weather observations for QLD | Other Formats
Station Details ID: 032197 Name: INNISFAIL AERODROME Lat: -17.56 Lon: 146.01 Height: 11.84 m
Data from the previous 72 hours. | See also: Recent months for locations in Queensland
Date/Time
EST
Temp
°C
App
Temp
°C
Dew
Point
°C
Rel
Hum
%
Delta-T
°C
Wind Press
QNH
hPa
Press
MSL
hPa
Rain since
9am
mm
Dir  Spd
km/h
Gust
km/h
Spd
kts
Gust
kts
22/05:00pm 24.1 22.2 16.6 63 4.6 SE 22 28 12 15 1018.7 1018.7 0.2
22/04:30pm 24.4 20.9 16.4 61 4.9 SE 30 37 16 20 1018.4 1018.4 0.2
22/04:00pm 24.7 20.7 15.1 55 5.7 SE 30 39 16 21 1018.3 1018.3 0.2
22/03:30pm 25.3 21.3 15.3 54 6.0 SE 30 39 16 21 1018.4 1018.4 0.2
22/03:00pm 25.4 21.1 15.4 54 6.0 SE 32 44 17 24 1018.5 1018.5 0.2
22/02:30pm 26.1 21.4 14.9 50 6.7 SE 33 43 18 23 1018.8 1018.8 0.2
22/02:00pm 26.8 22.5 15.5 50 6.9 SE 32 43 17 23 1018.9 1018.9 0.2
22/01:30pm 25.5 21.0 15.5 54 6.1 SE 33 43 18 23 1019.3 1019.3 0.2
22/01:00pm 25.2 20.1 14.9 52 6.2 SE 35 43 19 23 1019.5 1019.5 0.2
22/12:30pm 26.5 21.8 15.8 51 6.5 SSE 35 44 19 24 1019.8 1019.8 0.2
22/12:00pm 25.5 21.5 16.6 58 5.5 SE 33 44 18 24 1020.3 1020.3 0.2
22/11:30am 26.0 21.5 16.3 55 6.0 SE 35 44 19 24 1020.6 1020.6 0.2
22/11:00am 25.1 19.8 16.3 58 5.4 SSE 39 50 21 27 1021.1 1021.1 0.0
22/10:30am 25.0 19.9 15.9 57 5.5 SE 37 48 20 26 1021.4 1021.4 0.0
22/10:00am 24.9 20.7 16.3 59 5.2 SE 33 43 18 23 1021.4 1021.4 0.0
22/09:30am 24.6 21.0 17.3 64 4.5 SE 32 43 17 23 1021.3 1021.3 0.0
22/09:00am 24.8 21.0 18.0 66 4.3 SE 35 46 19 25 1021.2 1021.2 1.0
22/08:30am 24.0 21.6 19.1 74 3.1 SE 30 39 16 21 1021.2 1021.2 1.0
22/08:00am 22.7 20.4 18.5 77 2.6 SE 28 41 15 22 1020.9 1020.9 1.0
22/07:30am 22.5 22.1 19.3 82 2.0 SE 20 30 11 16 1020.5 1020.5 1.0
22/07:00am 20.5 22.8 19.8 96 0.4 SSW 7 11 4 6 1020.1 1020.1 1.0
22/06:30am 20.0 23.3 19.2 95 0.5 CALM 0 0 0 0 1019.7 1019.7 1.0
22/06:08am 20.0 22.0 18.8 93 0.8 E 6 9 3 5 1019.4 1019.4 0.8
22/06:00am 20.0 21.5 18.8 93 0.7 E 9 13 5 7 1019.4 1019.4 0.6
22/05:49am 20.3 20.7 19.0 92 0.8 E 15 22 8 12 1019.5 1019.5 0.2
22/05:30am 20.8 21.5 19.6 93 0.8 SE 15 26 8 14 1019.3 1019.3 0.0
22/05:00am 20.7 21.4 18.8 89 1.2 S 13 17 7 9 1018.9 1018.9 0.0
22/04:30am 20.1 21.3 18.2 89 1.2 WSW 9 11 5 6 1018.8 1018.8 0.0
22/04:00am 20.1 20.9 18.1 88 1.2 SSW 11 13 6 7 1018.7 1018.7 0.0
22/03:30am 19.8 20.4 17.8 88 1.2 SSW 11 13 6 7 1018.7 1018.7 0.0
22/03:00am 20.2 21.4 18.3 89 1.2 SSW 9 11 5 6 1018.9 1018.9 0.0
22/02:30am 20.3 21.7 17.9 86 1.5 SSW 7 9 4 5 1019.3 1019.3 0.0
22/02:00am 21.0 22.4 17.8 82 2.0 SSW 7 9 4 5 1019.4 1019.4 0.0
22/01:30am 21.3 22.8 17.7 80 2.2 SSE 6 7 3 4 1019.8 1019.8 0.0
22/01:00am 21.6 22.1 17.4 77 2.6 SE 11 13 6 7 1020.1 1020.1 0.0
22/12:30am 22.7 22.9 17.6 73 3.2 ESE 13 17 7 9 1020.5 1020.5 0.0
22/12:00am 22.5 22.8 17.8 75 2.9 SE 13 17 7 9 1020.7 1020.7 0.0
 
Date/Time
EST
Temp
°C
App
Temp
°C
Dew
Point
°C
Rel
Hum
%
Delta-T
°C
Wind Press
QNH
hPa
Press
MSL
hPa
Rain since
9am
mm
Dir  Spd
km/h
Gust
km/h
Spd
kts
Gust
kts
21/11:30pm 22.6 23.4 18.2 76 2.8 SE 11 15 6 8 1020.8 1020.8 0.0
21/11:00pm 21.6 22.4 18.2 81 2.1 S 11 13 6 7 1020.8 1020.8 0.0
21/10:30pm 21.3 22.7 18.7 85 1.6 S 9 13 5 7 1020.9 1020.9 0.0
21/10:00pm 21.6 23.0 18.6 83 1.9 SSE 9 13 5 7 1020.7 1020.7 0.0
21/09:30pm 22.5 22.6 18.3 77 2.6 SE 15 22 8 12 1020.6 1020.6 0.0
21/09:00pm 23.2 22.6 18.5 75 3.0 SE 19 26 10 14 1020.2 1020.2 0.0
21/08:30pm 22.5 22.6 19.1 81 2.2 SSE 17 20 9 11 1019.9 1019.9 0.0
21/08:00pm 23.3 22.6 18.6 75 3.0 SE 20 30 11 16 1019.7 1019.7 0.0
21/07:30pm 23.4 22.2 18.5 74 3.1 SSE 22 30 12 16 1019.3 1019.3 0.0
21/07:00pm 23.4 22.8 18.5 74 3.1 SE 19 24 10 13 1018.8 1018.8 0.0
21/06:30pm 23.3 21.3 18.2 73 3.2 SE 26 35 14 19 1018.1 1018.1 0.0
21/06:00pm 23.4 22.5 18.1 72 3.3 SE 20 26 11 14 1017.9 1017.9 0.0
21/05:30pm 24.0 21.4 17.7 68 3.9 SE 28 32 15 17 1017.6 1017.6 0.0
21/05:00pm 24.8 22.2 17.8 65 4.4 SE 28 39 15 21 1017.3 1017.3 0.0
21/04:30pm 24.5 21.9 17.7 66 4.2 SE 28 39 15 21 1017.1 1017.1 0.0
21/04:00pm 25.0 22.6 18.2 66 4.3 SE 28 41 15 22 1016.7 1016.7 0.0
21/03:30pm 25.7 23.1 17.9 62 4.9 SE 28 37 15 20 1016.5 1016.5 0.0
21/03:00pm 26.4 23.6 18.3 61 5.1 SE 30 41 16 22 1016.5 1016.5 0.0
21/02:30pm 27.7 25.5 19.5 61 5.3 SE 30 43 16 23 1016.5 1016.5 0.0
21/02:00pm 26.8 23.7 18.4 60 5.3 SE 32 41 17 22 1016.6 1016.6 0.0
21/01:30pm 27.5 24.6 18.8 59 5.6 SE 32 41 17 22 1016.7 1016.7 0.0
21/01:00pm 27.4 24.0 17.8 55 6.1 SSE 32 43 17 23 1017.1 1017.1 0.0
21/12:30pm 28.4 25.5 18.8 56 6.2 SSE 32 43 17 23 1017.4 1017.4 0.0
21/12:00pm 27.7 24.9 19.0 59 5.6 SE 32 43 17 23 1017.7 1017.7 0.0
21/11:30am 27.6 24.6 18.6 58 5.8 SSE 32 43 17 23 1018.0 1018.0 0.0
21/11:00am 26.3 23.6 17.6 58 5.5 SE 28 37 15 20 1018.3 1018.3 0.0
21/10:30am 26.8 24.7 18.9 62 5.1 SSE 28 35 15 19 1018.6 1018.6 0.0
21/10:00am 26.0 24.3 18.9 65 4.5 SE 26 39 14 21 1018.6 1018.6 0.0
21/09:30am 25.5 24.5 18.9 67 4.2 SSE 22 33 12 18 1018.4 1018.4 0.0
21/09:00am 24.7 24.7 18.2 67 4.1 SSE 15 24 8 13 1018.4 1018.4 0.0
21/08:30am 21.5 23.1 16.9 75 2.8 SW 4 6 2 3 1018.1 1018.1 0.0
21/08:00am 18.6 20.4 15.5 82 1.8 CALM 0 0 0 0 1017.8 1017.8 0.0
21/07:30am 16.6 18.7 16.3 98 0.2 CALM 0 0 0 0 1017.6 1017.6 0.0
21/07:00am 14.7 15.8 14.5 99 0.1 SW 2 6 1 3 1017.0 1017.0 0.0
21/06:30am 13.0 12.7 12.7 98 0.2 N 6 7 3 4 1016.5 1016.5 0.0
21/06:00am 13.1 12.3 12.8 98 0.2 W 9 11 5 6 1016.0 1016.0 0.0
21/05:30am 12.9 13.3 12.6 98 0.2 WSW 2 7 1 4 1015.7 1015.7 0.0
21/05:00am 13.5 14.5 13.3 99 0.1 CALM 0 0 0 0 1015.3 1015.3 0.0
21/04:30am 13.1 14.0 12.8 98 0.2 CALM 0 0 0 0 1014.9 1014.9 0.0
21/04:00am 13.4 13.2 13.1 98 0.2 SSW 6 9 3 5 1014.6 1014.6 0.0
21/03:36am 13.8 14.9 13.6 99 0.1 CALM 0 0 0 0 1014.4 1014.4 0.0
21/03:34am 14.0 15.2 13.8 99 0.1 CALM 0 0 0 0 1014.4 1014.4 0.0
21/03:30am 14.3 15.6 14.1 99 0.1 CALM 0 0 0 0 1014.4 1014.4 0.0
21/03:02am 12.5 11.8 11.9 96 0.3 NE 7 9 4 5 1014.4 1014.4 0.0
21/03:00am 12.6 11.9 12.0 96 0.3 NE 7 9 4 5 1014.4 1014.4 0.0
21/02:56am 13.0 12.6 12.5 97 0.3 NE 6 9 3 5 1014.3 1014.3 0.0
21/02:30am 14.3 15.6 14.0 98 0.2 CALM 0 0 0 0 1014.2 1014.2 0.0
21/02:16am 14.7 16.1 14.5 99 0.1 CALM 0 0 0 0 1014.2 1014.2 0.0
21/02:00am 14.6 16.0 14.4 99 0.1 CALM 0 4 0 2 1014.2 1014.2 0.0
21/01:30am 14.8 16.2 14.5 98 0.2 CALM 0 0 0 0 1014.3 1014.3 0.0
21/01:10am 14.2 14.6 13.7 97 0.3 N 4 7 2 4 1014.4 1014.4 0.0
21/01:00am 15.4 16.0 15.2 99 0.1 W 6 7 3 4 1014.5 1014.5 0.0
21/12:30am 14.1 14.1 13.5 96 0.3 WNW 6 9 3 5 1014.8 1014.8 0.0
21/12:00am 15.4 15.7 15.1 98 0.2 SSW 7 11 4 6 1015.2 1015.2 0.0
 
Date/Time
EST
Temp
°C
App
Temp
°C
Dew
Point
°C
Rel
Hum
%
Delta-T
°C
Wind Press
QNH
hPa
Press
MSL
hPa
Rain since
9am
mm
Dir  Spd
km/h
Gust
km/h
Spd
kts
Gust
kts
20/11:34pm 15.3 16.9 14.8 97 0.3 CALM 0 0 0 0 1015.4 1015.4 0.0
20/11:30pm 14.9 16.3 14.4 97 0.3 CALM 0 7 0 4 1015.3 1015.3 0.0
20/11:01pm 16.1 16.8 15.6 97 0.3 NNW 6 7 3 4 1015.6 1015.6 0.0
20/11:00pm 16.0 16.5 15.5 97 0.3 NNW 7 7 4 4 1015.6 1015.6 0.0
20/10:57pm 15.5 15.8 14.9 96 0.3 NNW 7 7 4 4 1015.7 1015.7 0.0
20/10:33pm 16.3 18.2 15.7 96 0.4 CALM 0 0 0 0 1015.6 1015.6 0.0
20/10:30pm 16.4 18.3 15.8 96 0.4 CALM 0 0 0 0 1015.7 1015.7 0.0
20/10:00pm 17.1 19.3 16.5 96 0.4 CALM 0 0 0 0 1015.8 1015.8 0.0
20/09:30pm 16.5 17.7 14.9 90 0.9 NNW 2 7 1 4 1015.9 1015.9 0.0
20/09:00pm 17.2 17.6 16.2 94 0.6 W 9 11 5 6 1015.7 1015.7 0.0
20/08:30pm 18.2 19.3 17.0 93 0.7 SW 7 7 4 4 1015.6 1015.6 0.0
20/08:00pm 18.4 19.4 16.4 88 1.2 WSW 6 9 3 5 1015.4 1015.4 0.0
20/07:30pm 19.3 20.7 17.3 88 1.2 W 6 9 3 5 1015.1 1015.1 0.0
20/07:00pm 20.6 22.3 18.0 85 1.6 SSW 6 7 3 4 1014.9 1014.9 0.0
20/06:30pm 21.3 22.6 17.5 79 2.3 SSE 7 7 4 4 1014.5 1014.5 0.0
20/06:00pm 22.6 23.9 17.5 73 3.2 E 7 9 4 5 1014.2 1014.2 0.0
20/05:30pm 23.3 24.1 17.3 69 3.7 E 9 13 5 7 1013.8 1013.8 0.0
20/05:00pm 24.6 24.9 17.8 66 4.3 ENE 13 17 7 9 1013.7 1013.7 0.0
20/04:30pm 25.3 25.5 17.7 62 4.8 E 13 17 7 9 1013.4 1013.4 0.0
20/04:00pm 25.5 25.2 17.4 61 5.1 E 15 20 8 11 1013.3 1013.3 0.0
20/03:30pm 26.7 26.3 18.0 59 5.5 E 17 24 9 13 1013.2 1013.2 0.0
20/03:00pm 26.6 25.9 18.2 60 5.3 E 19 26 10 14 1013.1 1013.1 0.0
20/02:30pm 27.4 26.4 16.7 52 6.7 ESE 17 28 9 15 1013.4 1013.4 0.0
20/02:00pm 27.3 26.3 16.6 52 6.6 ESE 17 24 9 13 1013.6 1013.6 0.0
20/01:30pm 27.9 27.1 17.1 51 6.8 ESE 17 20 9 11 1014.1 1014.1 0.0
20/01:00pm 27.9 27.4 17.7 53 6.4 ESE 17 24 9 13 1014.4 1014.4 0.0
20/12:30pm 26.8 25.6 17.0 55 6.1 ESE 19 26 10 14 1014.7 1014.7 0.0
20/12:00pm 27.2 27.2 17.1 54 6.3 SSE 13 20 7 11 1015.2 1015.2 0.0
20/11:30am 27.3 26.9 17.2 54 6.3 SSE 15 26 8 14 1015.5 1015.5 0.0
20/11:00am 27.0 26.1 16.9 54 6.3 SE 17 24 9 13 1015.8 1015.8 0.0
20/10:30am 25.4 24.2 16.0 56 5.7 SSE 17 26 9 14 1016.1 1016.1 0.0
20/10:00am 25.2 24.7 16.9 60 5.1 SE 15 22 8 12 1016.1 1016.1 0.0
20/09:30am 25.5 25.6 17.4 61 5.1 SE 13 22 7 12 1016.0 1016.0 0.0
20/09:00am 24.4 24.9 18.3 69 3.8 SSE 13 17 7 9 1015.9 1015.9 0.0
20/08:30am 22.1 24.0 18.9 82 2.0 SSW 7 11 4 6 1015.8 1015.8 0.0
20/08:00am 19.8 22.7 19.0 95 0.5 WSW 2 7 1 4 1015.7 1015.7 0.0
20/07:30am 17.7 20.3 17.5 99 0.1 CALM 0 0 0 0 1015.5 1015.5 0.0
20/07:00am 15.3 17.0 15.1 99 0.1 CALM 0 0 0 0 1015.2 1015.2 0.0
20/06:30am 15.2 15.6 15.2 100 0.0 SW 7 9 4 5 1014.7 1014.7 0.0
20/06:20am 14.5 14.5 14.3 99 0.1 WSW 7 9 4 5 1014.6 1014.6 0.0
20/06:00am 13.8 13.8 13.6 99 0.1 NW 6 7 3 4 1014.6 1014.6 0.0
20/05:30am 15.2 16.4 15.0 99 0.1 WNW 2 6 1 3 1014.4 1014.4 0.0
20/05:23am 15.2 16.8 15.0 99 0.1 CALM 0 0 0 0 1014.3 1014.3 0.0
20/05:00am 13.4 13.2 13.1 98 0.2 NNE 6 9 3 5 1014.1 1014.1 0.0
20/04:34am 14.9 15.1 14.7 99 0.1 WSW 7 9 4 5 1013.8 1013.8 0.0
20/04:30am 14.8 15.0 14.6 99 0.1 WSW 7 9 4 5 1013.8 1013.8 0.0
20/04:00am 14.5 15.9 14.3 99 0.1 CALM 0 0 0 0 1013.7 1013.7 0.0
20/03:30am 14.3 15.6 14.1 99 0.1 CALM 0 6 0 3 1013.5 1013.5 0.0
20/03:28am 14.2 15.1 13.9 98 0.2 NNW 2 6 1 3 1013.5 1013.5 0.0
20/03:20am 14.4 14.6 14.2 99 0.1 NNW 6 7 3 4 1013.6 1013.6 0.0
20/03:00am 15.0 16.6 14.8 99 0.1 CALM 0 0 0 0 1013.7 1013.7 0.0
20/02:30am 15.1 15.9 14.9 99 0.1 SSE 4 9 2 5 1014.0 1014.0 0.0
20/02:00am 14.8 16.2 14.5 98 0.2 CALM 0 0 0 0 1014.2 1014.2 0.0
20/01:30am 15.3 16.9 15.0 98 0.2 CALM 0 0 0 0 1014.6 1014.6 0.0
20/01:00am 16.3 18.3 16.0 98 0.2 CALM 0 0 0 0 1014.9 1014.9 0.0
20/12:33am 15.7 17.4 15.2 97 0.3 CALM 0 0 0 0 1015.1 1015.1 0.0
20/12:30am 15.4 17.0 14.8 96 0.3 CALM 0 0 0 0 1015.2 1015.2 0.0
20/12:00am 16.9 19.1 16.4 97 0.3 CALM 0 6 0 3 1015.6 1015.6 0.0
 
Date/Time
EST
Temp
°C
App
Temp
°C
Dew
Point
°C
Rel
Hum
%
Delta-T
°C
Wind Press
QNH
hPa
Press
MSL
hPa
Rain since
9am
mm
Dir  Spd
km/h
Gust
km/h
Spd
kts
Gust
kts
19/11:30pm 17.7 18.5 17.4 98 0.2 WSW 9 13 5 7 1015.8 1015.8 0.0
19/11:00pm 16.2 16.8 15.7 97 0.3 WNW 7 9 4 5 1016.0 1016.0 0.0
19/10:30pm 17.5 18.5 16.9 96 0.4 SW 7 9 4 5 1016.0 1016.0 0.0
19/10:00pm 18.3 18.9 17.8 97 0.3 SW 11 13 6 7 1016.1 1016.1 0.0
19/09:30pm 17.2 17.8 15.9 92 0.8 SW 7 9 4 5 1016.1 1016.1 0.0
19/09:00pm 18.5 19.6 17.0 91 0.9 WSW 7 9 4 5 1015.9 1015.9 0.0
19/08:30pm 19.0 20.3 17.5 91 0.9 WSW 7 9 4 5 1015.7 1015.7 0.0
19/08:00pm 19.5 21.8 17.8 90 1.0 SSW 2 7 1 4 1015.4 1015.4 0.0
19/07:30pm 19.8 22.4 17.4 86 1.5 CALM 0 0 0 0 1015.0 1015.0 0.0
19/07:00pm 20.8 23.5 17.8 83 1.9 CALM 0 6 0 3 1014.6 1014.6 0.0
19/06:30pm 21.0 21.7 17.0 78 2.4 SE 9 9 5 5 1014.4 1014.4 0.0
19/06:00pm 23.0 24.1 18.1 74 3.1 ESE 9 13 5 7 1014.1 1014.1 0.0
19/05:30pm 24.0 24.2 17.7 68 3.9 ESE 13 15 7 8 1013.9 1013.9 0.0

Other Formats:

Comma delimited format used in spreadsheet applications
http://www.bom.gov.au/fwo/IDQ60801/IDQ60801.94280.axf

JavaScript Object Notation format (JSON) in row-major order
http://www.bom.gov.au/fwo/IDQ60801/IDQ60801.94280.json